createdAt,value
2023-02-28T00:00:32.246Z,3.90
2023-02-28T00:02:37.445Z,3.15
2023-02-28T00:04:42.884Z,4.00
2023-02-28T00:06:47.772Z,4.47
2023-02-28T00:08:53.222Z,4.85
2023-02-28T00:10:58.097Z,5.18
2023-02-28T00:13:06.391Z,4.72
2023-02-28T00:15:15.452Z,5.38
2023-02-28T00:17:23.353Z,3.20
2023-02-28T00:19:28.798Z,4.75
2023-02-28T00:21:33.701Z,4.05
2023-02-28T00:23:40.159Z,4.40
2023-02-28T00:25:45.029Z,4.18
2023-02-28T00:27:50.332Z,4.10
2023-02-28T00:29:55.490Z,4.30
2023-02-28T00:32:00.404Z,6.85
2023-02-28T00:34:08.412Z,3.38
2023-02-28T00:36:15.303Z,4.32
2023-02-28T00:38:20.766Z,4.55
2023-02-28T00:40:25.736Z,3.50
2023-02-28T00:42:31.750Z,3.30
2023-02-28T00:44:37.652Z,5.13
2023-02-28T00:46:42.551Z,2.78
2023-02-28T00:48:48.054Z,4.88
2023-02-28T00:50:55.878Z,4.93
2023-02-28T00:53:01.010Z,3.03
2023-02-28T00:55:06.506Z,5.32
2023-02-28T00:57:11.945Z,4.50
2023-02-28T00:59:17.561Z,4.88
2023-02-28T01:01:23.268Z,4.70
2023-02-28T01:03:29.105Z,5.63
2023-02-28T01:05:35.306Z,3.45
2023-02-28T01:07:43.036Z,4.40
2023-02-28T01:09:48.469Z,4.47
2023-02-28T01:11:53.343Z,3.85
2023-02-28T01:13:58.521Z,3.90
2023-02-28T01:16:03.492Z,4.10
2023-02-28T01:18:09.368Z,5.43
2023-02-28T01:20:15.661Z,5.63
2023-02-28T01:22:20.872Z,4.15
2023-02-28T01:24:28.886Z,5.65
2023-02-28T01:26:34.476Z,3.63
2023-02-28T01:28:40.748Z,4.65
2023-02-28T01:30:45.857Z,3.85
2023-02-28T01:32:52.876Z,6.35
2023-02-28T01:34:58.639Z,4.88
2023-02-28T01:37:04.502Z,4.38
2023-02-28T01:39:10.017Z,6.03
2023-02-28T01:41:21.481Z,5.05
2023-02-28T01:43:29.777Z,3.92
2023-02-28T01:47:46.683Z,6.72
2023-02-28T01:49:52.665Z,4.88
2023-02-28T01:52:00.507Z,3.92
2023-02-28T01:54:14.875Z,5.10
2023-02-28T01:56:31.140Z,3.45
2023-02-28T01:58:36.976Z,4.60
2023-02-28T02:00:43.681Z,3.85
2023-02-28T02:02:54.156Z,6.13
2023-02-28T02:05:03.677Z,3.40
2023-02-28T02:07:08.764Z,3.95
2023-02-28T02:09:13.937Z,4.15
2023-02-28T02:11:25.858Z,5.72
2023-02-28T02:14:09.029Z,4.47
2023-02-28T02:16:32.438Z,3.63
2023-02-28T02:18:44.812Z,3.72
2023-02-28T02:21:20.705Z,4.85
2023-02-28T02:24:09.489Z,12.15
2023-02-28T02:26:50.424Z,7.18
2023-02-28T02:29:20.108Z,6.82
2023-02-28T02:32:05.909Z,5.63
2023-02-28T02:34:44.829Z,4.68
2023-02-28T02:36:53.757Z,3.88
2023-02-28T02:39:09.703Z,5.40
2023-02-28T02:41:21.864Z,5.28
2023-02-28T02:43:32.388Z,3.78
2023-02-28T02:45:43.824Z,3.85
2023-02-28T02:47:49.799Z,4.45
2023-02-28T02:50:02.176Z,5.85
2023-02-28T02:52:15.693Z,7.10
2023-02-28T02:54:29.779Z,5.15
2023-02-28T02:56:37.612Z,3.10
2023-02-28T02:58:47.110Z,4.78
2023-02-28T03:01:00.253Z,3.65
2023-02-28T03:03:06.456Z,4.88
2023-02-28T03:05:23.269Z,3.97
2023-02-28T03:07:29.998Z,4.57
2023-02-28T03:09:39.559Z,3.22
2023-02-28T03:11:46.334Z,3.20
2023-02-28T03:14:28.741Z,5.45
2023-02-28T03:16:43.787Z,4.00
2023-02-28T03:19:06.252Z,4.63
2023-02-28T03:21:24.100Z,3.28
2023-02-28T03:23:42.434Z,2.97
2023-02-28T03:26:00.496Z,3.85
2023-02-28T03:28:13.481Z,3.60
2023-02-28T03:30:27.970Z,4.53
2023-02-28T03:32:39.711Z,6.65
2023-02-28T03:34:52.463Z,3.10
2023-02-28T03:37:05.752Z,6.95
2023-02-28T03:39:15.542Z,5.10
2023-02-28T03:41:27.074Z,3.50
2023-02-28T03:43:39.814Z,4.30
2023-02-28T03:45:47.802Z,4.78
2023-02-28T03:47:58.301Z,4.63
2023-02-28T03:50:09.492Z,3.35
2023-02-28T03:52:18.489Z,3.85
2023-02-28T03:54:29.940Z,4.05
2023-02-28T03:56:41.536Z,5.68
2023-02-28T03:58:53.986Z,3.35
2023-02-28T04:01:09.276Z,4.10
2023-02-28T04:03:14.388Z,4.82
2023-02-28T04:05:19.844Z,4.07
2023-02-28T04:07:28.632Z,4.00
2023-02-28T04:09:33.668Z,4.50
2023-02-28T04:11:41.750Z,3.85
2023-02-28T04:13:47.619Z,5.15
2023-02-28T04:15:53.034Z,5.68
2023-02-28T04:17:58.325Z,5.22
2023-02-28T04:20:04.799Z,5.07
2023-02-28T04:22:10.084Z,4.20
2023-02-28T04:24:20.618Z,5.22
2023-02-28T04:26:25.503Z,5.32
2023-02-28T04:28:31.709Z,3.75
2023-02-28T04:30:37.049Z,3.58
2023-02-28T04:32:43.428Z,4.88
2023-02-28T04:34:48.373Z,5.32
2023-02-28T04:37:10.363Z,5.05
2023-02-28T04:39:20.719Z,6.40
2023-02-28T04:41:29.548Z,5.78
2023-02-28T04:43:36.774Z,5.38
2023-02-28T04:45:41.751Z,7.35
2023-02-28T04:47:46.995Z,4.50
2023-02-28T04:49:51.928Z,4.78
2023-02-28T04:51:57.585Z,6.60
2023-02-28T04:54:02.486Z,4.03
2023-02-28T04:56:14.063Z,5.97
2023-02-28T04:58:20.666Z,5.93
2023-02-28T05:00:26.161Z,6.22
2023-02-28T05:02:31.750Z,7.20
2023-02-28T05:04:38.609Z,5.68
2023-02-28T05:06:44.039Z,4.43
2023-02-28T05:08:49.200Z,6.55
2023-02-28T05:10:54.486Z,5.38
2023-02-28T05:13:02.386Z,6.95
2023-02-28T05:17:13.834Z,5.45
2023-02-28T05:19:19.119Z,6.25
2023-02-28T05:21:32.895Z,6.15
2023-02-28T05:23:37.949Z,6.22
2023-02-28T05:25:44.289Z,5.80
2023-02-28T05:27:50.281Z,8.50
2023-02-28T05:29:57.777Z,5.47
2023-02-28T05:32:03.525Z,7.80
2023-02-28T05:34:08.900Z,6.35
2023-02-28T05:36:14.423Z,6.80
2023-02-28T05:38:20.059Z,9.57
2023-02-28T05:40:28.517Z,6.28
2023-02-28T05:42:33.484Z,8.13
2023-02-28T05:44:38.541Z,7.72
2023-02-28T05:46:46.389Z,8.90
2023-02-28T05:48:52.267Z,6.88
2023-02-28T05:50:57.227Z,7.32
2023-02-28T05:53:02.246Z,9.70
2023-02-28T05:55:09.891Z,5.68
2023-02-28T05:57:23.989Z,10.00
2023-02-28T05:59:30.063Z,6.68
2023-02-28T06:01:39.710Z,7.60
2023-02-28T06:03:47.386Z,6.82
2023-02-28T06:05:52.414Z,7.60
2023-02-28T06:07:58.096Z,8.60
2023-02-28T06:10:03.025Z,9.70
2023-02-28T06:12:11.274Z,7.82
2023-02-28T06:14:21.093Z,8.80
2023-02-28T06:16:26.433Z,8.68
2023-02-28T06:18:31.418Z,8.32
2023-02-28T06:20:39.138Z,8.23
2023-02-28T06:22:44.706Z,7.90
2023-02-28T06:24:49.617Z,8.38
2023-02-28T06:26:55.063Z,11.57
2023-02-28T06:29:02.078Z,8.95
2023-02-28T06:31:12.016Z,9.60
2023-02-28T06:33:16.978Z,8.82
2023-02-28T06:35:22.627Z,13.15
2023-02-28T06:37:30.570Z,9.05
2023-02-28T06:39:36.771Z,8.32
2023-02-28T06:41:54.066Z,8.18
2023-02-28T06:44:00.770Z,11.90
2023-02-28T06:46:09.681Z,9.15
2023-02-28T06:48:14.983Z,11.35
2023-02-28T06:50:22.724Z,11.00
2023-02-28T06:52:30.220Z,12.60
2023-02-28T06:54:35.997Z,11.30
2023-02-28T06:56:41.391Z,12.10
2023-02-28T06:58:50.337Z,11.27
2023-02-28T07:00:57.216Z,10.43
2023-02-28T07:03:02.676Z,11.65
2023-02-28T07:05:09.497Z,10.50
2023-02-28T07:07:14.780Z,11.80
2023-02-28T07:09:22.976Z,10.15
2023-02-28T07:13:36.196Z,11.10
2023-02-28T07:15:44.153Z,15.80
2023-02-28T07:17:49.960Z,11.50
2023-02-28T07:19:54.928Z,10.20
2023-02-28T07:22:00.237Z,17.85
2023-02-28T07:24:07.414Z,13.18
2023-02-28T07:26:19.724Z,10.60
2023-02-28T07:28:24.868Z,19.23
2023-02-28T07:30:32.102Z,12.77
2023-02-28T07:32:38.896Z,10.60
2023-02-28T07:34:46.329Z,9.88
2023-02-28T07:36:54.616Z,14.38
2023-02-28T07:38:59.638Z,11.02
2023-02-28T07:41:08.716Z,8.80
2023-02-28T07:43:16.197Z,9.88
2023-02-28T07:45:21.688Z,10.05
2023-02-28T07:47:26.570Z,10.88
2023-02-28T07:49:33.768Z,12.32
2023-02-28T07:51:38.682Z,12.43
2023-02-28T07:53:44.423Z,8.38
2023-02-28T07:55:49.339Z,8.10
2023-02-28T07:57:55.824Z,10.63
2023-02-28T08:02:17.781Z,10.35
2023-02-28T08:04:23.163Z,9.52
2023-02-28T08:06:28.987Z,11.50
2023-02-28T08:08:35.625Z,8.48
2023-02-28T08:10:41.343Z,8.18
2023-02-28T08:12:46.241Z,11.10
2023-02-28T08:14:51.137Z,9.55
2023-02-28T08:16:58.604Z,9.75
2023-02-28T08:19:04.134Z,8.10
2023-02-28T08:21:12.973Z,7.35
2023-02-28T08:23:18.661Z,6.90
2023-02-28T08:25:24.705Z,6.28
2023-02-28T08:27:30.037Z,8.93
2023-02-28T08:29:34.955Z,6.25
2023-02-28T08:31:40.074Z,8.68
2023-02-28T08:33:49.939Z,8.60
2023-02-28T08:35:58.097Z,6.65
2023-02-28T08:38:03.625Z,9.02
2023-02-28T08:40:11.210Z,5.78
2023-02-28T08:42:16.120Z,7.18
2023-02-28T08:44:21.086Z,7.45
2023-02-28T08:46:26.652Z,6.35
2023-02-28T08:48:34.593Z,7.63
2023-02-28T08:54:52.779Z,9.80
2023-02-28T08:56:57.687Z,5.82
2023-02-28T08:59:02.894Z,6.82
2023-02-28T09:01:15.913Z,4.93
2023-02-28T09:03:23.202Z,6.05
2023-02-28T09:05:30.256Z,13.68
2023-02-28T09:07:37.951Z,4.10
2023-02-28T09:09:55.163Z,5.78
2023-02-28T09:12:01.226Z,6.00
2023-02-28T09:14:06.933Z,6.00
2023-02-28T09:16:17.139Z,5.70
2023-02-28T09:18:23.342Z,4.88
2023-02-28T09:20:28.289Z,6.20
2023-02-28T09:22:33.612Z,6.03
2023-02-28T09:24:42.069Z,7.45
2023-02-28T09:27:01.517Z,6.78
2023-02-28T09:29:09.414Z,5.97
2023-02-28T09:31:21.771Z,9.43
2023-02-28T09:33:27.726Z,7.85
2023-02-28T09:35:32.741Z,6.30
2023-02-28T09:37:38.174Z,7.88
2023-02-28T09:39:45.907Z,7.25
2023-02-28T09:41:53.944Z,7.47
2023-02-28T09:44:04.073Z,7.70
2023-02-28T09:46:21.886Z,9.10
2023-02-28T09:48:33.350Z,6.45
2023-02-28T09:50:42.966Z,5.15
2023-02-28T09:52:52.265Z,6.70
2023-02-28T09:54:59.932Z,6.80
2023-02-28T09:59:47.902Z,9.82
2023-02-28T10:02:01.045Z,5.80
2023-02-28T10:04:15.596Z,7.20
2023-02-28T10:06:23.872Z,7.53
2023-02-28T10:08:33.105Z,6.75
2023-02-28T10:10:46.221Z,7.10
2023-02-28T10:12:54.827Z,7.18
2023-02-28T10:15:03.446Z,8.93
2023-02-28T10:17:16.240Z,7.25
2023-02-28T10:19:33.668Z,7.75
2023-02-28T10:21:46.911Z,6.30
2023-02-28T10:23:53.393Z,10.00
2023-02-28T10:26:05.003Z,8.80
2023-02-28T10:28:15.794Z,7.22
2023-02-28T10:30:21.120Z,8.07
2023-02-28T10:32:29.870Z,7.60
2023-02-28T10:34:34.921Z,7.50
2023-02-28T10:36:39.797Z,7.45
2023-02-28T10:38:44.922Z,7.05
2023-02-28T10:40:49.856Z,8.30
2023-02-28T10:43:04.227Z,9.50
2023-02-28T10:45:15.418Z,9.07
2023-02-28T10:47:23.056Z,6.53
2023-02-28T10:51:42.022Z,8.05
2023-02-28T10:54:01.129Z,7.60
2023-02-28T10:56:10.248Z,6.72
2023-02-28T10:58:28.540Z,5.18
2023-02-28T11:00:38.985Z,9.10
2023-02-28T11:02:45.626Z,9.18
2023-02-28T11:04:51.188Z,6.05
2023-02-28T11:07:02.553Z,8.52
2023-02-28T11:09:20.452Z,9.90
2023-02-28T11:11:30.601Z,7.57
2023-02-28T11:13:41.174Z,8.68
2023-02-28T11:15:53.816Z,10.30
2023-02-28T11:18:00.463Z,5.50
2023-02-28T11:20:08.983Z,6.57
2023-02-28T11:22:14.193Z,9.00
2023-02-28T11:24:29.425Z,5.97
2023-02-28T11:26:45.042Z,7.72
2023-02-28T11:29:14.600Z,7.63
2023-02-28T11:31:23.521Z,5.88
2023-02-28T11:33:32.719Z,12.35
2023-02-28T11:35:42.226Z,8.32
2023-02-28T11:37:48.013Z,7.75
2023-02-28T11:39:53.225Z,7.25
2023-02-28T11:42:29.378Z,7.30
2023-02-28T11:44:52.673Z,8.43
2023-02-28T11:47:03.308Z,7.53
2023-02-28T11:49:32.347Z,8.27
2023-02-28T11:51:48.183Z,9.93
2023-02-28T11:54:31.159Z,8.73
2023-02-28T11:56:42.058Z,10.35
2023-02-28T11:58:58.692Z,10.45
2023-02-28T12:01:38.285Z,12.93
2023-02-28T12:03:52.290Z,7.05
2023-02-28T12:06:12.433Z,12.90
2023-02-28T12:08:36.668Z,8.95
2023-02-28T12:10:55.778Z,8.27
2023-02-28T12:13:20.320Z,10.27
2023-02-28T12:15:53.300Z,7.68
2023-02-28T12:18:18.633Z,6.85
2023-02-28T12:20:37.340Z,8.60
2023-02-28T12:22:56.842Z,8.48
2023-02-28T12:25:44.570Z,9.05
2023-02-28T12:27:54.067Z,9.50
2023-02-28T12:30:05.539Z,12.20
2023-02-28T12:32:19.073Z,8.75
2023-02-28T12:34:32.323Z,8.27
2023-02-28T12:36:39.369Z,8.68
2023-02-28T12:38:48.126Z,7.47
2023-02-28T12:40:58.472Z,9.57
2023-02-28T12:43:10.423Z,10.43
2023-02-28T12:45:22.622Z,6.03
2023-02-28T12:47:27.853Z,9.30
2023-02-28T12:49:42.837Z,33.10
2023-02-28T12:51:49.553Z,49.50
2023-02-28T12:54:08.714Z,17.38
2023-02-28T12:56:21.501Z,18.90
2023-02-28T12:58:37.419Z,13.23
2023-02-28T13:01:02.603Z,15.20
2023-02-28T13:03:39.688Z,6.63
2023-02-28T13:09:03.174Z,14.55
2023-02-28T13:11:21.035Z,10.38
2023-02-28T13:13:30.782Z,6.78
2023-02-28T13:15:41.542Z,9.63
2023-02-28T13:17:53.663Z,6.43
2023-02-28T13:20:03.050Z,7.65
2023-02-28T13:22:22.041Z,6.85
2023-02-28T13:24:50.776Z,7.72
2023-02-28T13:27:41.614Z,7.32
2023-02-28T13:29:49.329Z,7.35
2023-02-28T13:34:40.566Z,6.78
2023-02-28T13:36:45.808Z,7.90
2023-02-28T13:38:56.449Z,6.15
2023-02-28T13:41:49.252Z,5.93
2023-02-28T13:44:07.313Z,6.45
2023-02-28T13:46:16.808Z,5.47
2023-02-28T13:48:33.841Z,7.45
2023-02-28T13:50:41.487Z,5.95
2023-02-28T13:52:57.816Z,5.28
2023-02-28T13:55:30.976Z,8.37
2023-02-28T13:57:51.577Z,6.32
2023-02-28T14:00:19.168Z,6.63
2023-02-28T14:02:52.511Z,6.78
2023-02-28T14:05:05.743Z,4.95
2023-02-28T14:07:13.420Z,9.00
2023-02-28T14:11:37.388Z,9.60
2023-02-28T14:13:48.512Z,6.47
2023-02-28T14:16:00.972Z,7.45
2023-02-28T14:18:14.935Z,14.55
2023-02-28T14:20:20.888Z,6.32
2023-02-28T14:22:58.831Z,6.60
2023-02-28T14:25:20.072Z,8.10
2023-02-28T14:27:44.689Z,7.65
2023-02-28T14:30:22.407Z,5.13
2023-02-28T14:32:33.925Z,5.03
2023-02-28T14:34:50.618Z,7.57
2023-02-28T14:36:57.379Z,8.50
2023-02-28T14:39:08.741Z,6.28
2023-02-28T14:41:24.106Z,6.90
2023-02-28T14:43:33.177Z,5.65
2023-02-28T14:45:39.983Z,5.70
2023-02-28T14:47:47.016Z,6.93
2023-02-28T14:49:52.351Z,5.82
2023-02-28T14:52:12.538Z,6.03
2023-02-28T14:54:21.049Z,5.47
2023-02-28T14:56:32.227Z,7.15
2023-02-28T14:58:39.829Z,7.25
2023-02-28T15:00:54.765Z,7.85
2023-02-28T15:03:04.646Z,8.88
2023-02-28T15:05:29.636Z,8.57
2023-02-28T15:07:34.610Z,9.60
2023-02-28T15:09:39.560Z,8.43
2023-02-28T15:11:45.557Z,8.60
2023-02-28T15:13:56.523Z,8.38
2023-02-28T15:16:06.343Z,7.72
2023-02-28T15:18:15.532Z,7.28
2023-02-28T15:20:22.207Z,8.82
2023-02-28T15:22:35.316Z,8.18
2023-02-28T15:24:45.662Z,6.55
2023-02-28T15:26:57.151Z,18.52
2023-02-28T15:29:14.853Z,8.63
2023-02-28T15:31:35.607Z,7.88
2023-02-28T15:33:58.137Z,13.15
2023-02-28T15:36:18.418Z,10.27
2023-02-28T15:38:29.310Z,12.43
2023-02-28T15:40:40.187Z,13.95
2023-02-28T15:42:47.248Z,11.55
2023-02-28T15:44:54.725Z,9.82
2023-02-28T15:47:05.471Z,7.45
2023-02-28T15:49:23.530Z,8.15
2023-02-28T15:51:40.207Z,8.75
2023-02-28T15:53:51.694Z,19.75
2023-02-28T15:56:05.644Z,16.48
2023-02-28T15:58:14.752Z,12.05
2023-02-28T16:00:26.277Z,11.63
2023-02-28T16:02:36.770Z,22.98
2023-02-28T16:04:59.284Z,10.63
2023-02-28T16:07:09.873Z,10.43
2023-02-28T16:09:17.972Z,12.60
2023-02-28T16:11:25.389Z,10.93
2023-02-28T16:13:30.829Z,12.45
2023-02-28T16:15:45.448Z,9.57
2023-02-28T16:17:50.912Z,9.75
2023-02-28T16:19:57.236Z,10.25
2023-02-28T16:22:02.735Z,9.38
2023-02-28T16:24:08.211Z,10.90
2023-02-28T16:26:25.049Z,10.38
2023-02-28T16:28:35.443Z,10.48
2023-02-28T16:30:43.059Z,9.98
2023-02-28T16:32:48.203Z,9.88
2023-02-28T16:34:53.856Z,9.27
2023-02-28T16:36:59.895Z,11.85
2023-02-28T16:39:06.048Z,12.65
2023-02-28T16:41:19.782Z,12.47
2023-02-28T16:43:30.325Z,12.70
2023-02-28T16:45:35.864Z,10.85
2023-02-28T16:47:43.321Z,14.90
2023-02-28T16:49:49.295Z,11.02
2023-02-28T16:51:54.193Z,23.48
2023-02-28T16:53:59.664Z,24.15
2023-02-28T16:56:08.145Z,18.42
2023-02-28T16:58:20.247Z,17.20
2023-02-28T17:00:27.629Z,18.38
2023-02-28T17:02:32.750Z,14.37
2023-02-28T17:04:40.929Z,12.38
2023-02-28T17:06:46.181Z,18.83
2023-02-28T17:08:51.271Z,12.98
2023-02-28T17:10:57.121Z,14.32
2023-02-28T17:13:14.134Z,18.23
2023-02-28T17:15:22.454Z,15.77
2023-02-28T17:17:35.131Z,19.23
2023-02-28T17:19:44.752Z,22.33
2023-02-28T17:21:50.100Z,20.42
2023-02-28T17:23:55.419Z,21.90
2023-02-28T17:26:00.746Z,30.45
2023-02-28T17:28:06.103Z,28.85
2023-02-28T17:30:20.399Z,17.45
2023-02-28T17:32:25.359Z,18.23
2023-02-28T17:34:30.291Z,15.45
2023-02-28T17:36:38.944Z,19.75
2023-02-28T17:38:44.035Z,18.73
2023-02-28T17:40:49.724Z,16.23
2023-02-28T17:42:56.240Z,11.98
2023-02-28T17:45:01.517Z,15.00
2023-02-28T17:47:08.462Z,14.85
2023-02-28T17:49:14.294Z,15.30
2023-02-28T17:51:22.392Z,16.30
2023-02-28T17:53:29.928Z,22.15
2023-02-28T17:57:42.678Z,23.83
2023-02-28T17:59:48.606Z,21.00
2023-02-28T18:01:54.155Z,20.73
2023-02-28T18:04:00.185Z,22.25
2023-02-28T18:06:06.633Z,17.70
2023-02-28T18:08:19.576Z,18.77
2023-02-28T18:10:28.412Z,17.50
2023-02-28T18:12:33.514Z,14.60
2023-02-28T18:14:38.406Z,18.73
2023-02-28T18:16:43.682Z,16.75
2023-02-28T18:18:49.117Z,18.80
2023-02-28T18:20:54.756Z,16.67
2023-02-28T18:22:59.669Z,16.27
2023-02-28T18:25:04.581Z,19.88
2023-02-28T18:29:24.600Z,15.10
2023-02-28T18:31:29.550Z,18.80
2023-02-28T18:33:34.748Z,20.20
2023-02-28T18:35:39.970Z,16.23
2023-02-28T18:37:44.898Z,17.45
2023-02-28T18:39:50.172Z,17.17
2023-02-28T18:41:55.226Z,18.75
2023-02-28T18:44:13.775Z,17.58
2023-02-28T18:46:24.006Z,19.80
2023-02-28T18:48:28.937Z,21.90
2023-02-28T18:50:34.204Z,27.15
2023-02-28T18:52:39.147Z,46.88
2023-02-28T18:54:46.153Z,56.58
2023-02-28T18:56:51.061Z,62.45
2023-02-28T18:58:56.463Z,60.55
2023-02-28T19:01:05.167Z,42.80
2023-02-28T19:03:10.946Z,27.05
2023-02-28T19:05:16.100Z,32.45
2023-02-28T19:07:21.035Z,35.40
2023-02-28T19:09:26.074Z,27.05
2023-02-28T19:11:31.846Z,28.25
2023-02-28T19:13:37.467Z,24.58
2023-02-28T19:15:42.792Z,24.35
2023-02-28T19:17:50.331Z,28.30
2023-02-28T19:19:55.316Z,42.20
2023-02-28T19:22:00.278Z,29.45
2023-02-28T19:24:06.613Z,32.05
2023-02-28T19:26:14.080Z,37.60
2023-02-28T19:28:19.052Z,21.90
2023-02-28T19:30:24.985Z,23.55
2023-02-28T19:32:30.757Z,23.52
2023-02-28T19:34:38.500Z,20.30
2023-02-28T19:38:48.759Z,19.73
2023-02-28T19:40:53.658Z,22.05
2023-02-28T19:42:59.352Z,24.30
2023-02-28T19:45:06.954Z,20.75
2023-02-28T19:47:12.624Z,22.00
2023-02-28T19:49:18.763Z,23.58
2023-02-28T19:51:27.697Z,30.83
2023-02-28T19:53:34.366Z,21.73
2023-02-28T19:55:40.912Z,23.30
2023-02-28T19:57:46.064Z,22.83
2023-02-28T19:59:52.084Z,20.35
2023-02-28T20:01:57.650Z,21.88
2023-02-28T20:04:04.641Z,23.30
2023-02-28T20:06:13.798Z,19.02
2023-02-28T20:08:21.738Z,21.98
2023-02-28T20:10:26.669Z,22.95
2023-02-28T20:12:32.399Z,23.50
2023-02-28T20:14:37.331Z,22.02
2023-02-28T20:16:43.637Z,25.88
2023-02-28T20:18:53.739Z,19.52
2023-02-28T20:20:58.785Z,23.25
2023-02-28T20:23:04.214Z,23.88
2023-02-28T20:25:13.751Z,23.05
2023-02-28T20:27:18.957Z,23.08
2023-02-28T20:29:24.129Z,44.22
2023-02-28T20:31:31.205Z,31.90
2023-02-28T20:33:36.513Z,27.58
2023-02-28T20:35:41.508Z,30.08
2023-02-28T20:37:47.073Z,28.90
2023-02-28T20:39:53.262Z,32.72
2023-02-28T20:42:00.824Z,28.05
2023-02-28T20:44:05.730Z,37.00
2023-02-28T20:46:10.870Z,43.13
2023-02-28T20:48:15.780Z,73.82
2023-02-28T20:50:22.175Z,40.28
2023-02-28T20:52:27.289Z,26.77
2023-02-28T20:56:38.556Z,29.00
2023-02-28T20:58:49.109Z,26.90
2023-02-28T21:00:54.488Z,30.83
2023-02-28T21:02:59.386Z,24.25
2023-02-28T21:05:04.555Z,26.38
2023-02-28T21:07:10.237Z,28.85
2023-02-28T21:09:17.999Z,22.90
2023-02-28T21:11:26.930Z,24.38
2023-02-28T21:13:32.096Z,22.98
2023-02-28T21:15:42.684Z,18.08
2023-02-28T21:17:48.693Z,23.08
2023-02-28T21:19:53.602Z,21.48
2023-02-28T21:21:58.599Z,24.02
2023-02-28T21:24:03.881Z,22.33
2023-02-28T21:26:11.377Z,26.42
2023-02-28T21:28:16.436Z,24.25
2023-02-28T21:30:21.720Z,24.80
2023-02-28T21:32:29.762Z,23.52
2023-02-28T21:34:34.980Z,24.27
2023-02-28T21:36:45.259Z,21.45
2023-02-28T21:38:52.882Z,22.13
2023-02-28T21:40:57.970Z,22.92
2023-02-28T21:43:03.353Z,22.85
2023-02-28T21:45:10.190Z,24.80
2023-02-28T21:47:15.521Z,25.02
2023-02-28T21:49:23.422Z,23.20
2023-02-28T21:53:40.432Z,33.85
2023-02-28T21:55:45.394Z,24.85
2023-02-28T21:57:50.317Z,25.77
2023-02-28T21:59:55.970Z,21.92
2023-02-28T22:02:01.119Z,27.20
2023-02-28T22:04:09.079Z,24.17
2023-02-28T22:06:19.999Z,26.45
2023-02-28T22:08:25.468Z,27.27
2023-02-28T22:10:30.982Z,29.10
2023-02-28T22:12:36.399Z,24.70
2023-02-28T22:14:45.320Z,24.63
2023-02-28T22:16:53.896Z,25.10
2023-02-28T22:19:00.729Z,32.88
2023-02-28T22:21:06.490Z,40.47
2023-02-28T22:23:14.690Z,42.20
2023-02-28T22:25:20.296Z,31.83
2023-02-28T22:27:25.243Z,28.33
2023-02-28T22:29:30.248Z,22.52
2023-02-28T22:31:38.734Z,22.50
2023-02-28T22:33:44.233Z,20.52
2023-02-28T22:35:49.803Z,24.38
2023-02-28T22:37:54.791Z,24.52
2023-02-28T22:40:02.632Z,22.98
2023-02-28T22:42:07.720Z,23.48
2023-02-28T22:44:14.374Z,30.42
2023-02-28T22:46:20.302Z,28.33
2023-02-28T22:48:25.261Z,27.38
2023-02-28T22:50:30.598Z,26.27
2023-02-28T22:52:35.896Z,28.88
2023-02-28T22:54:40.779Z,26.80
2023-02-28T22:56:48.759Z,25.95
2023-02-28T22:58:55.376Z,25.65
2023-02-28T23:01:08.234Z,25.63
2023-02-28T23:03:13.138Z,27.25
2023-02-28T23:05:18.699Z,31.88
2023-02-28T23:07:24.328Z,25.48
2023-02-28T23:09:29.976Z,27.50
2023-02-28T23:11:38.098Z,26.75
2023-02-28T23:13:46.598Z,25.55
2023-02-28T23:15:51.828Z,30.10
2023-02-28T23:17:57.109Z,28.40
2023-02-28T23:20:02.055Z,30.42
2023-02-28T23:22:07.834Z,27.63
2023-02-28T23:24:16.236Z,25.73
2023-02-28T23:26:21.291Z,29.58
2023-02-28T23:28:27.867Z,28.50
2023-02-28T23:30:36.785Z,29.92
2023-02-28T23:32:44.288Z,27.17
2023-02-28T23:34:52.092Z,28.20
2023-02-28T23:36:58.248Z,33.53
2023-02-28T23:39:03.506Z,29.13
2023-02-28T23:41:13.780Z,28.48
2023-02-28T23:43:19.632Z,31.35
2023-02-28T23:45:24.956Z,29.40
2023-02-28T23:47:32.680Z,27.42
2023-02-28T23:49:38.996Z,28.15
2023-02-28T23:51:44.173Z,26.90
2023-02-28T23:53:52.182Z,28.27
2023-02-28T23:55:57.494Z,29.60
2023-02-28T23:58:02.413Z,32.65
